createdAt,value
2023-05-23T00:01:09.235Z,13.90
2023-05-23T00:03:37.701Z,13.92
2023-05-23T00:06:07.236Z,13.94
2023-05-23T00:08:35.406Z,13.88
2023-05-23T00:11:02.660Z,13.90
2023-05-23T00:13:30.205Z,13.86
2023-05-23T00:15:57.471Z,13.84
2023-05-23T00:18:25.589Z,13.86
2023-05-23T00:20:52.931Z,13.86
2023-05-23T00:23:21.449Z,13.85
2023-05-23T00:25:54.251Z,13.79
2023-05-23T00:28:22.542Z,13.79
2023-05-23T00:30:50.157Z,13.79
2023-05-23T00:33:22.139Z,13.75
2023-05-23T00:35:49.716Z,13.82
2023-05-23T00:38:17.770Z,13.78
2023-05-23T00:40:45.086Z,13.74
2023-05-23T00:43:12.824Z,13.66
2023-05-23T00:45:40.521Z,13.68
2023-05-23T00:48:09.167Z,13.66
2023-05-23T00:50:36.740Z,13.73
2023-05-23T00:53:04.778Z,13.76
2023-05-23T00:55:32.930Z,13.69
2023-05-23T00:58:00.882Z,13.62
2023-05-23T01:00:29.093Z,13.62
2023-05-23T01:02:56.931Z,13.62
2023-05-23T01:05:25.195Z,13.63
2023-05-23T01:07:53.161Z,13.63
2023-05-23T01:10:31.290Z,13.59
2023-05-23T01:13:17.598Z,13.56
2023-05-23T01:16:28.355Z,13.53
2023-05-23T01:19:24.728Z,13.47
2023-05-23T01:21:55.687Z,13.49
2023-05-23T01:24:41.413Z,13.48
2023-05-23T01:27:14.049Z,13.46
2023-05-23T01:29:47.149Z,13.41
2023-05-23T01:32:16.271Z,13.43
2023-05-23T01:34:44.237Z,13.40
2023-05-23T01:37:14.674Z,13.38
2023-05-23T01:39:42.450Z,13.42
2023-05-23T01:42:10.108Z,13.51
2023-05-23T01:44:38.770Z,13.45
2023-05-23T01:47:08.482Z,13.31
2023-05-23T01:49:37.948Z,13.23
2023-05-23T01:52:09.764Z,13.14
2023-05-23T01:54:39.304Z,13.06
2023-05-23T01:57:08.187Z,12.99
2023-05-23T01:59:35.833Z,13.01
2023-05-23T02:02:03.277Z,12.99
2023-05-23T02:04:30.946Z,12.98
2023-05-23T02:06:59.364Z,12.94
2023-05-23T02:09:26.949Z,12.93
2023-05-23T02:11:54.456Z,12.89
2023-05-23T02:14:22.266Z,12.86
2023-05-23T02:16:49.715Z,12.86
2023-05-23T02:19:17.409Z,12.85
2023-05-23T02:21:47.066Z,12.90
2023-05-23T02:24:14.746Z,12.89
2023-05-23T02:26:42.090Z,12.87
2023-05-23T02:29:09.730Z,12.87
2023-05-23T02:31:37.174Z,13.04
2023-05-23T02:34:05.027Z,13.30
2023-05-23T02:36:33.539Z,13.25
2023-05-23T02:39:01.279Z,13.26
2023-05-23T02:41:28.957Z,13.15
2023-05-23T02:43:56.612Z,12.86
2023-05-23T02:46:24.151Z,13.14
2023-05-23T02:48:51.718Z,13.39
2023-05-23T02:51:19.021Z,13.69
2023-05-23T02:53:46.542Z,13.94
2023-05-23T02:56:13.875Z,13.97
2023-05-23T02:58:41.718Z,13.98
2023-05-23T03:01:09.033Z,14.18
2023-05-23T03:03:36.765Z,14.21
2023-05-23T03:06:07.289Z,14.44
2023-05-23T03:08:34.955Z,14.73
2023-05-23T03:11:03.055Z,14.77
2023-05-23T03:13:30.909Z,14.72
2023-05-23T03:15:58.253Z,14.81
2023-05-23T03:18:26.028Z,14.97
2023-05-23T03:20:53.607Z,14.94
2023-05-23T03:23:23.898Z,15.04
2023-05-23T03:25:51.182Z,15.29
2023-05-23T03:28:18.780Z,15.52
2023-05-23T03:30:46.093Z,15.93
2023-05-23T03:33:13.680Z,16.63
2023-05-23T03:35:41.143Z,17.54
2023-05-23T03:38:09.175Z,19.26
2023-05-23T03:40:36.474Z,20.96
2023-05-23T03:43:08.527Z,20.45
2023-05-23T03:45:38.902Z,20.76
2023-05-23T03:48:12.609Z,20.68
2023-05-23T03:50:41.175Z,20.11
2023-05-23T03:53:08.942Z,20.04
2023-05-23T03:55:36.669Z,20.64
2023-05-23T03:58:04.230Z,21.06
2023-05-23T04:00:31.592Z,21.40
2023-05-23T04:03:00.796Z,21.35
2023-05-23T04:05:28.284Z,21.49
2023-05-23T04:07:56.046Z,21.50
2023-05-23T04:10:24.071Z,21.17
2023-05-23T04:12:52.090Z,20.80
2023-05-23T04:15:21.669Z,20.92
2023-05-23T04:18:09.796Z,20.79
2023-05-23T04:20:37.758Z,21.66
2023-05-23T04:23:06.004Z,21.49
2023-05-23T04:25:36.746Z,21.12
2023-05-23T04:28:17.672Z,20.62
2023-05-23T04:30:45.383Z,20.93
2023-05-23T04:33:13.650Z,20.95
2023-05-23T04:35:41.491Z,20.80
2023-05-23T04:38:10.324Z,20.94
2023-05-23T04:40:37.956Z,20.66
2023-05-23T04:43:27.524Z,20.75
2023-05-23T04:45:58.444Z,21.35
2023-05-23T04:48:37.406Z,21.83
2023-05-23T04:51:11.626Z,21.84
2023-05-23T04:53:45.546Z,21.73
2023-05-23T04:56:12.914Z,21.73
2023-05-23T04:58:42.203Z,21.56
2023-05-23T05:01:11.953Z,21.85
2023-05-23T05:03:40.076Z,22.06
2023-05-23T05:06:07.873Z,22.32
2023-05-23T05:08:37.025Z,22.23
2023-05-23T05:11:05.345Z,22.19
2023-05-23T05:13:33.475Z,22.13
2023-05-23T05:16:01.886Z,22.68
2023-05-23T05:18:30.430Z,23.71
2023-05-23T05:20:59.010Z,24.25
2023-05-23T05:23:30.332Z,25.01
2023-05-23T05:25:58.316Z,25.31
2023-05-23T05:28:25.938Z,24.33
2023-05-23T05:30:54.580Z,25.18
2023-05-23T05:33:28.538Z,25.34
2023-05-23T05:36:08.073Z,25.79
2023-05-23T05:38:36.177Z,25.75
2023-05-23T05:41:03.442Z,26.16
2023-05-23T05:43:36.029Z,25.69
2023-05-23T05:46:03.838Z,27.54
2023-05-23T05:48:32.350Z,30.82
2023-05-23T05:51:03.904Z,32.94
2023-05-23T05:53:34.014Z,33.92
2023-05-23T05:56:02.760Z,35.71
2023-05-23T05:58:31.688Z,36.71
2023-05-23T06:01:02.208Z,37.44
2023-05-23T06:03:29.865Z,36.11
2023-05-23T06:05:58.471Z,36.09
2023-05-23T06:08:26.044Z,37.22
2023-05-23T06:10:53.558Z,37.89
2023-05-23T06:13:21.156Z,37.23
2023-05-23T06:15:53.081Z,37.55
2023-05-23T06:18:20.908Z,38.56
2023-05-23T06:20:49.119Z,38.05
2023-05-23T06:23:18.031Z,39.15
2023-05-23T06:25:46.986Z,39.73
2023-05-23T06:28:14.594Z,39.54
2023-05-23T06:30:42.334Z,38.12
2023-05-23T06:33:10.302Z,33.21
2023-05-23T06:35:37.614Z,30.21
2023-05-23T06:38:05.175Z,30.01
2023-05-23T06:40:32.417Z,32.91
2023-05-23T06:43:00.242Z,33.63
2023-05-23T06:45:52.199Z,33.95
2023-05-23T06:48:19.843Z,31.54
2023-05-23T06:50:47.699Z,32.02
2023-05-23T06:53:18.883Z,31.05
2023-05-23T06:55:47.706Z,34.44
2023-05-23T06:58:18.341Z,36.71
2023-05-23T07:00:45.853Z,35.05
2023-05-23T07:03:22.277Z,37.54
2023-05-23T07:05:51.863Z,39.99
2023-05-23T07:08:29.820Z,38.26
2023-05-23T07:11:01.673Z,40.69
2023-05-23T07:13:33.331Z,33.65
2023-05-23T07:16:01.195Z,35.54
2023-05-23T07:18:28.989Z,33.89
2023-05-23T07:20:57.864Z,34.42
2023-05-23T07:23:26.098Z,35.76
2023-05-23T07:26:01.731Z,35.07
2023-05-23T07:28:39.063Z,35.03
2023-05-23T07:31:10.140Z,33.22
2023-05-23T07:33:39.049Z,33.37
2023-05-23T07:36:08.587Z,35.91
2023-05-23T07:38:36.527Z,36.02
2023-05-23T07:41:11.490Z,34.11
2023-05-23T07:43:40.686Z,33.99
2023-05-23T07:46:08.557Z,30.48
2023-05-23T07:48:36.756Z,30.42
2023-05-23T07:51:04.555Z,31.78
2023-05-23T07:53:32.236Z,34.55
2023-05-23T07:55:59.637Z,33.40
2023-05-23T07:58:32.382Z,32.57
2023-05-23T08:00:59.805Z,31.62
2023-05-23T08:03:46.480Z,29.14
2023-05-23T08:06:20.797Z,31.46
2023-05-23T08:08:48.690Z,32.50
2023-05-23T08:11:16.607Z,34.96
2023-05-23T08:13:49.488Z,34.20
2023-05-23T08:16:37.892Z,30.72
2023-05-23T08:19:16.643Z,30.74
2023-05-23T08:21:46.923Z,32.72
2023-05-23T08:24:15.237Z,29.31
2023-05-23T08:26:44.241Z,29.83
2023-05-23T08:29:15.040Z,29.64
2023-05-23T08:31:43.341Z,31.70
2023-05-23T08:34:12.811Z,31.73
2023-05-23T08:36:42.464Z,31.78
2023-05-23T08:39:14.585Z,30.92
2023-05-23T08:41:49.879Z,30.18
2023-05-23T08:44:17.592Z,28.41
2023-05-23T08:46:53.753Z,28.33
2023-05-23T08:49:40.112Z,28.14
2023-05-23T08:52:12.272Z,28.79
2023-05-23T08:54:42.890Z,28.36
2023-05-23T08:57:11.872Z,28.14
2023-05-23T08:59:43.863Z,28.93
2023-05-23T09:02:14.239Z,29.66
2023-05-23T09:04:41.940Z,29.62
2023-05-23T09:07:19.794Z,29.20
2023-05-23T09:09:51.372Z,30.12
2023-05-23T09:12:18.809Z,30.85
2023-05-23T09:14:48.618Z,31.55
2023-05-23T09:17:18.567Z,30.94
2023-05-23T09:19:49.781Z,27.67
2023-05-23T09:22:33.015Z,27.90
2023-05-23T09:25:15.124Z,26.38
2023-05-23T09:27:47.495Z,27.94
2023-05-23T09:30:16.147Z,29.04
2023-05-23T09:32:44.829Z,31.00
2023-05-23T09:35:14.306Z,28.92
2023-05-23T09:37:46.209Z,26.35
2023-05-23T09:40:15.394Z,30.76
2023-05-23T09:42:53.482Z,26.66
2023-05-23T09:45:21.229Z,26.29
2023-05-23T09:47:52.522Z,27.83
2023-05-23T09:50:21.308Z,27.17
2023-05-23T09:52:51.256Z,27.99
2023-05-23T09:55:19.748Z,25.88
2023-05-23T09:57:53.338Z,27.23
2023-05-23T10:00:21.222Z,25.71
2023-05-23T10:02:54.841Z,27.28
2023-05-23T10:05:38.828Z,28.47
2023-05-23T10:08:12.804Z,30.00
2023-05-23T10:10:55.712Z,30.47
2023-05-23T10:13:29.045Z,29.63
2023-05-23T10:16:15.136Z,30.53
2023-05-23T10:18:48.950Z,30.85
2023-05-23T10:21:21.338Z,31.35
2023-05-23T10:23:49.051Z,26.60
2023-05-23T10:26:18.242Z,26.84
2023-05-23T10:28:47.361Z,28.48
2023-05-23T10:31:15.184Z,27.97
2023-05-23T10:33:53.118Z,26.78
2023-05-23T10:36:36.115Z,26.81
2023-05-23T10:39:16.573Z,27.38
2023-05-23T10:41:51.825Z,25.82
2023-05-23T10:44:32.312Z,24.89
2023-05-23T10:47:04.627Z,25.58
2023-05-23T10:49:46.079Z,26.30
2023-05-23T10:52:17.227Z,25.25
2023-05-23T10:54:50.939Z,24.74
2023-05-23T10:57:21.187Z,24.47
2023-05-23T10:59:52.099Z,24.43
2023-05-23T11:02:27.614Z,24.58
2023-05-23T11:05:23.042Z,25.13
2023-05-23T11:08:17.962Z,24.55
2023-05-23T11:11:02.318Z,24.17
2023-05-23T11:14:00.649Z,23.85
2023-05-23T11:16:29.209Z,23.46
2023-05-23T11:19:18.964Z,23.22
2023-05-23T11:22:02.129Z,24.01
2023-05-23T11:24:53.585Z,24.45
2023-05-23T11:27:38.101Z,25.07
2023-05-23T11:30:13.994Z,23.65
2023-05-23T11:32:43.178Z,23.62
2023-05-23T11:35:11.572Z,24.67
2023-05-23T11:37:40.030Z,24.69
2023-05-23T11:40:27.447Z,23.22
2023-05-23T11:42:55.738Z,22.70
2023-05-23T11:45:24.249Z,22.43
2023-05-23T11:47:51.854Z,22.50
2023-05-23T11:50:22.860Z,23.28
2023-05-23T11:52:53.889Z,22.56
2023-05-23T11:55:22.813Z,22.92
2023-05-23T11:57:51.959Z,22.43
2023-05-23T12:00:20.021Z,22.60
2023-05-23T12:02:49.100Z,22.64
2023-05-23T12:05:17.211Z,22.77
2023-05-23T12:07:47.385Z,22.77
2023-05-23T12:10:16.935Z,23.75
2023-05-23T12:12:45.039Z,23.90
2023-05-23T12:15:13.275Z,23.14
2023-05-23T12:17:46.426Z,23.86
2023-05-23T12:20:14.357Z,24.77
2023-05-23T12:22:42.376Z,24.12
2023-05-23T12:25:11.303Z,24.14
2023-05-23T12:27:41.815Z,23.66
2023-05-23T12:30:16.937Z,23.83
2023-05-23T12:32:46.866Z,24.00
2023-05-23T12:35:16.183Z,23.68
2023-05-23T12:37:46.943Z,24.42
2023-05-23T12:40:19.370Z,24.73
2023-05-23T12:42:54.082Z,25.17
2023-05-23T12:45:30.860Z,24.68
2023-05-23T12:47:58.260Z,25.25
2023-05-23T12:50:26.009Z,24.53
2023-05-23T12:52:53.414Z,25.02
2023-05-23T12:55:21.132Z,24.68
2023-05-23T12:57:48.585Z,23.96
2023-05-23T13:00:16.712Z,24.50
2023-05-23T13:02:44.130Z,24.66
2023-05-23T13:05:12.448Z,24.37
2023-05-23T13:07:39.704Z,24.18
2023-05-23T13:10:07.818Z,24.83
2023-05-23T13:12:35.128Z,25.24
2023-05-23T13:15:02.907Z,24.86
2023-05-23T13:17:32.224Z,25.02
2023-05-23T13:20:05.272Z,25.19
2023-05-23T13:22:35.543Z,25.68
2023-05-23T13:25:03.430Z,24.58
2023-05-23T13:27:30.744Z,24.50
2023-05-23T13:29:58.374Z,24.91
2023-05-23T13:32:26.098Z,23.88
2023-05-23T13:34:53.820Z,24.16
2023-05-23T13:37:21.135Z,23.69
2023-05-23T13:39:48.953Z,23.53
2023-05-23T13:42:16.507Z,24.87
2023-05-23T13:44:44.225Z,24.71
2023-05-23T13:47:13.452Z,23.98
2023-05-23T13:49:43.280Z,24.00
2023-05-23T13:52:10.830Z,23.74
2023-05-23T13:54:38.503Z,24.32
2023-05-23T13:57:06.881Z,24.26
2023-05-23T13:59:34.463Z,24.42
2023-05-23T14:02:01.967Z,24.43
2023-05-23T14:04:29.745Z,24.49
2023-05-23T14:06:57.065Z,23.87
2023-05-23T14:09:24.770Z,24.20
2023-05-23T14:11:52.485Z,23.94
2023-05-23T14:14:20.312Z,24.57
2023-05-23T14:16:50.829Z,24.70
2023-05-23T14:19:19.032Z,24.78
2023-05-23T14:21:46.451Z,23.65
2023-05-23T14:24:14.154Z,23.13
2023-05-23T14:26:41.548Z,23.67
2023-05-23T14:29:09.104Z,23.78
2023-05-23T14:31:36.380Z,23.82
2023-05-23T14:34:03.993Z,22.89
2023-05-23T14:36:31.857Z,22.99
2023-05-23T14:39:01.344Z,23.64
2023-05-23T14:41:29.020Z,23.16
2023-05-23T14:43:56.587Z,23.23
2023-05-23T14:46:23.934Z,23.17
2023-05-23T14:48:51.875Z,23.17
2023-05-23T14:51:34.631Z,23.01
2023-05-23T14:54:06.831Z,22.75
2023-05-23T14:56:34.093Z,23.15
2023-05-23T14:59:02.604Z,22.34
2023-05-23T15:01:30.018Z,22.39
2023-05-23T15:03:57.813Z,22.32
2023-05-23T15:06:25.139Z,22.55
2023-05-23T15:08:53.505Z,22.24
2023-05-23T15:11:21.604Z,22.50
2023-05-23T15:13:49.220Z,22.32
2023-05-23T15:16:16.727Z,22.27
2023-05-23T15:18:44.773Z,22.59
2023-05-23T15:21:12.607Z,22.50
2023-05-23T15:23:40.210Z,22.54
2023-05-23T15:26:07.598Z,22.34
2023-05-23T15:28:35.188Z,22.16
2023-05-23T15:31:02.459Z,22.25
2023-05-23T15:33:30.062Z,22.33
2023-05-23T15:35:59.451Z,21.92
2023-05-23T15:38:27.123Z,21.72
2023-05-23T15:40:56.631Z,21.51
2023-05-23T15:43:25.352Z,21.81
2023-05-23T15:45:53.019Z,21.75
2023-05-23T15:48:21.041Z,22.01
2023-05-23T15:50:48.402Z,21.76
2023-05-23T15:53:16.025Z,21.69
2023-05-23T15:55:43.326Z,21.69
2023-05-23T15:58:11.559Z,22.14
2023-05-23T16:00:38.991Z,22.03
2023-05-23T16:03:06.728Z,21.95
2023-05-23T16:05:34.023Z,21.84
2023-05-23T16:08:01.601Z,21.78
2023-05-23T16:10:28.876Z,21.81
2023-05-23T16:12:56.529Z,22.13
2023-05-23T16:15:23.960Z,22.31
2023-05-23T16:17:51.604Z,22.55
2023-05-23T16:20:19.072Z,22.55
2023-05-23T16:22:46.719Z,22.53
2023-05-23T16:25:14.035Z,22.13
2023-05-23T16:27:41.689Z,22.04
2023-05-23T16:30:09.966Z,21.83
2023-05-23T16:32:37.683Z,22.30
2023-05-23T16:35:05.353Z,22.45
2023-05-23T16:37:32.963Z,22.38
2023-05-23T16:40:00.838Z,22.13
2023-05-23T16:42:28.620Z,21.31
2023-05-23T16:44:56.122Z,21.82
2023-05-23T16:47:23.840Z,21.97
2023-05-23T16:49:51.230Z,21.75
2023-05-23T16:52:19.008Z,21.35
2023-05-23T16:54:46.445Z,21.63
2023-05-23T16:57:14.209Z,21.76
2023-05-23T16:59:41.551Z,21.74
2023-05-23T17:02:11.333Z,21.46
2023-05-23T17:04:38.728Z,21.49
2023-05-23T17:07:08.658Z,21.45
2023-05-23T17:09:36.657Z,21.80
2023-05-23T17:12:04.541Z,21.35
2023-05-23T17:14:32.074Z,21.45
2023-05-23T17:16:59.774Z,21.60
2023-05-23T17:19:27.191Z,21.67
2023-05-23T17:21:54.761Z,21.42
2023-05-23T17:24:22.345Z,21.28
2023-05-23T17:26:49.950Z,21.72
2023-05-23T17:29:17.469Z,21.24
2023-05-23T17:31:45.031Z,21.71
2023-05-23T17:34:12.798Z,21.50
2023-05-23T17:36:40.420Z,21.43
2023-05-23T17:39:07.755Z,21.01
2023-05-23T17:41:36.474Z,21.21
2023-05-23T17:44:08.930Z,20.97
2023-05-23T17:46:36.745Z,20.70
2023-05-23T17:49:04.043Z,20.51
2023-05-23T17:51:32.388Z,20.29
2023-05-23T17:53:59.660Z,20.53
2023-05-23T17:56:27.504Z,20.65
2023-05-23T17:58:55.080Z,20.52
2023-05-23T18:01:23.722Z,20.69
2023-05-23T18:03:51.097Z,20.81
2023-05-23T18:06:18.659Z,20.70
2023-05-23T18:08:45.959Z,20.59
2023-05-23T18:11:14.344Z,20.64
2023-05-23T18:13:42.685Z,20.70
2023-05-23T18:16:10.391Z,20.59
2023-05-23T18:18:37.630Z,20.57
2023-05-23T18:21:06.309Z,20.71
2023-05-23T18:23:33.752Z,20.41
2023-05-23T18:26:01.324Z,20.54
2023-05-23T18:28:28.809Z,20.58
2023-05-23T18:30:56.410Z,20.55
2023-05-23T18:33:23.842Z,20.48
2023-05-23T18:35:51.628Z,20.48
2023-05-23T18:38:19.085Z,20.51
2023-05-23T18:40:46.772Z,20.61
2023-05-23T18:43:17.240Z,20.47
2023-05-23T18:45:44.999Z,20.29
2023-05-23T18:48:13.086Z,20.18
2023-05-23T18:50:40.956Z,20.26
2023-05-23T18:53:08.423Z,19.77
2023-05-23T18:55:36.671Z,19.88
2023-05-23T18:58:03.954Z,19.73
2023-05-23T19:00:31.657Z,19.89
2023-05-23T19:02:59.076Z,19.88
2023-05-23T19:05:27.216Z,19.93
2023-05-23T19:07:54.488Z,19.82
2023-05-23T19:10:22.216Z,19.79
2023-05-23T19:12:49.503Z,19.86
2023-05-23T19:15:17.088Z,19.88
2023-05-23T19:17:44.457Z,19.90
2023-05-23T19:20:13.031Z,19.75
2023-05-23T19:22:51.041Z,19.80
2023-05-23T19:25:21.725Z,19.78
2023-05-23T19:27:49.158Z,19.81
2023-05-23T19:30:16.842Z,19.56
2023-05-23T19:32:44.264Z,19.49
2023-05-23T19:35:13.380Z,19.57
2023-05-23T19:37:42.137Z,19.53
2023-05-23T19:40:10.726Z,19.67
2023-05-23T19:42:37.994Z,19.44
2023-05-23T19:45:06.750Z,19.48
2023-05-23T19:47:34.110Z,19.63
2023-05-23T19:50:01.746Z,19.57
2023-05-23T19:52:29.152Z,19.69
2023-05-23T19:54:56.950Z,19.22
2023-05-23T19:57:26.321Z,19.35
2023-05-23T19:59:53.853Z,19.31
2023-05-23T20:02:21.145Z,19.43
2023-05-23T20:04:48.825Z,19.55
2023-05-23T20:07:16.133Z,19.49
2023-05-23T20:09:43.755Z,19.54
2023-05-23T20:12:11.215Z,19.55
2023-05-23T20:14:38.842Z,19.70
2023-05-23T20:17:08.051Z,19.72
2023-05-23T20:19:36.145Z,19.75
2023-05-23T20:22:03.570Z,19.78
2023-05-23T20:24:31.997Z,19.73
2023-05-23T20:26:59.276Z,19.63
2023-05-23T20:29:26.850Z,19.65
2023-05-23T20:31:54.320Z,19.73
2023-05-23T20:34:21.973Z,19.74
2023-05-23T20:36:49.226Z,19.69
2023-05-23T20:39:16.790Z,19.63
2023-05-23T20:41:45.640Z,19.77
2023-05-23T20:44:14.322Z,19.71
2023-05-23T20:46:41.622Z,19.71
2023-05-23T20:49:10.473Z,19.67
2023-05-23T20:51:38.739Z,19.61
2023-05-23T20:54:07.166Z,19.53
2023-05-23T20:56:34.456Z,19.34
2023-05-23T20:59:02.041Z,19.39
2023-05-23T21:01:29.506Z,19.34
2023-05-23T21:03:57.362Z,19.29
2023-05-23T21:06:24.639Z,19.23
2023-05-23T21:08:52.178Z,19.19
2023-05-23T21:11:19.451Z,19.18
2023-05-23T21:13:47.474Z,19.29
2023-05-23T21:16:14.939Z,19.24
2023-05-23T21:18:42.690Z,19.19
2023-05-23T21:21:10.076Z,19.19
2023-05-23T21:23:37.644Z,19.21
2023-05-23T21:26:05.025Z,19.22
2023-05-23T21:28:32.601Z,19.19
2023-05-23T21:31:00.395Z,19.24
2023-05-23T21:33:27.986Z,19.28
2023-05-23T21:35:55.262Z,19.19
2023-05-23T21:38:24.168Z,19.20
2023-05-23T21:40:51.734Z,19.11
2023-05-23T21:43:19.361Z,19.11
2023-05-23T21:45:46.651Z,19.16
2023-05-23T21:48:14.239Z,19.07
2023-05-23T21:50:41.755Z,19.11
2023-05-23T21:53:09.446Z,19.04
2023-05-23T21:55:36.792Z,19.07
2023-05-23T21:58:04.387Z,19.01
2023-05-23T22:00:31.689Z,19.05
2023-05-23T22:02:59.447Z,19.01
2023-05-23T22:05:26.742Z,18.97
2023-05-23T22:07:54.331Z,19.00
2023-05-23T22:10:21.814Z,18.99
2023-05-23T22:12:49.424Z,19.06
2023-05-23T22:15:16.696Z,19.02
2023-05-23T22:17:46.857Z,19.07
2023-05-23T22:20:16.050Z,19.00
2023-05-23T22:22:43.866Z,19.01
2023-05-23T22:25:11.374Z,18.94
2023-05-23T22:27:39.484Z,18.95
2023-05-23T22:30:07.853Z,18.96
2023-05-23T22:32:36.211Z,18.84
2023-05-23T22:35:03.685Z,18.83
2023-05-23T22:37:31.248Z,18.84
2023-05-23T22:39:58.555Z,18.82
2023-05-23T22:42:26.246Z,18.77
2023-05-23T22:44:53.542Z,18.72
2023-05-23T22:47:21.282Z,18.65
2023-05-23T22:49:48.859Z,18.65
2023-05-23T22:52:16.688Z,18.73
2023-05-23T22:54:44.011Z,18.73
2023-05-23T22:57:11.635Z,18.79
2023-05-23T22:59:38.986Z,18.52
2023-05-23T23:02:06.695Z,18.66
2023-05-23T23:04:34.079Z,18.72
2023-05-23T23:07:01.841Z,18.76
2023-05-23T23:09:29.126Z,18.87
2023-05-23T23:11:56.742Z,18.91
2023-05-23T23:14:24.032Z,18.86
2023-05-23T23:16:53.528Z,18.90
2023-05-23T23:19:21.873Z,18.93
2023-05-23T23:21:49.445Z,18.87
2023-05-23T23:24:17.774Z,18.87
2023-05-23T23:26:45.437Z,18.81
2023-05-23T23:29:12.795Z,18.76
2023-05-23T23:31:40.510Z,18.75
2023-05-23T23:34:07.764Z,18.85
2023-05-23T23:36:35.299Z,18.88
2023-05-23T23:39:02.536Z,18.77
2023-05-23T23:41:30.094Z,18.74
2023-05-23T23:43:57.397Z,18.79
2023-05-23T23:46:24.967Z,18.82
2023-05-23T23:48:52.308Z,18.79
2023-05-23T23:51:19.954Z,18.74
2023-05-23T23:53:49.245Z,18.66
2023-05-23T23:56:18.730Z,18.61
2023-05-23T23:58:46.121Z,18.94
